Time;durP1;ratioP1;P1;durP2;ratioP2;P2;SDS_P1;SDS_P2;PMS_P1;PMS_P2;Temp;Humidity;BMP_temperature;BMP_pressure;BME280_temperature;BME280_humidity;BME280_pressure;Samples;Min_cycle;Max_cycle;Signal;HPM_P1;HPM_P2
2023/11/19 00:00:26;;;;;;;92.85;18.42;;;;;;;;;;5047491;28;20064;-59
2023/11/19 00:02:52;;;;;;;71.75;18.42;;;;;;;;;;5047185;28;20119;-60
2023/11/19 00:05:19;;;;;;;82.15;16.95;;;;;;;;;;5066279;28;20507;-59
2023/11/19 00:07:45;;;;;;;85.00;16.20;;;;;;;;;;5058398;28;20041;-59
2023/11/19 00:10:13;;;;;;;68.00;16.38;;;;;;;;;;5038036;28;20053;-59
2023/11/19 00:12:42;;;;;;;84.35;15.23;;;;;;;;;;5072656;28;20507;-60
2023/11/19 00:15:11;;;;;;;68.05;16.63;;;;;;;;;;5069347;28;20040;-60
2023/11/19 00:17:44;;;;;;;72.00;16.55;;;;;;;;;;5062906;28;20516;-60
2023/11/19 00:20:21;;;;;;;63.40;13.85;;;;;;;;;;5048189;28;20393;-59
2023/11/19 00:22:56;;;;;;;62.00;12.55;;;;;;;;;;5068891;28;20050;-60
2023/11/19 00:25:22;;;;;;;67.90;13.27;;;;;;;;;;5065215;28;20492;-60
2023/11/19 00:27:50;;;;;;;76.93;13.48;;;;;;;;;;5072082;28;20063;-59
2023/11/19 00:30:16;;;;;;;65.05;11.73;;;;;;;;;;5064582;28;20416;-60
2023/11/19 00:32:42;;;;;;;71.30;12.48;;;;;;;;;;5072662;28;20056;-60
2023/11/19 00:35:15;;;;;;;62.53;10.25;;;;;;;;;;5060988;28;20076;-60
2023/11/19 00:37:42;;;;;;;69.78;12.55;;;;;;;;;;5045753;28;20045;-60
2023/11/19 00:40:10;;;;;;;68.82;10.68;;;;;;;;;;5065408;28;20052;-59
2023/11/19 00:42:36;;;;;;;56.60;10.32;;;;;;;;;;5072138;28;20462;-60
2023/11/19 00:45:02;;;;;;;66.32;11.57;;;;;;;;;;5072738;28;20041;-60
2023/11/19 00:47:30;;;;;;;61.08;11.90;;;;;;;;;;5070819;28;20052;-59
2023/11/19 00:49:57;;;;;;;75.03;11.35;;;;;;;;;;5048990;28;20425;-60
2023/11/19 00:52:23;;;;;;;73.50;11.10;;;;;;;;;;5052252;28;20393;-59
2023/11/19 00:54:49;;;;;;;68.35;11.60;;;;;;;;;;5055381;28;20041;-59
2023/11/19 00:57:15;;;;;;;72.53;11.00;;;;;;;;;;5063703;28;20040;-59
2023/11/19 00:59:44;;;;;;;70.32;11.07;;;;;;;;;;5058599;28;20121;-60
2023/11/19 01:02:10;;;;;;;69.53;12.73;;;;;;;;;;5071120;28;20048;-60
2023/11/19 01:04:37;;;;;;;60.70;9.43;;;;;;;;;;5064923;28;20115;-60
2023/11/19 01:07:04;;;;;;;53.92;9.18;;;;;;;;;;5072373;28;20101;-60
2023/11/19 01:09:34;;;;;;;66.75;12.30;;;;;;;;;;5058547;28;20065;-60
2023/11/19 01:12:01;;;;;;;64.40;10.50;;;;;;;;;;5051552;28;20057;-59
2023/11/19 01:14:27;;;;;;;70.40;10.40;;;;;;;;;;5049970;28;20388;-60
2023/11/19 01:16:56;;;;;;;74.50;11.70;;;;;;;;;;5072081;28;20449;-60
2023/11/19 01:19:24;;;;;;;64.85;9.77;;;;;;;;;;5062898;28;20043;-60
2023/11/19 01:21:50;;;;;;;65.90;10.13;;;;;;;;;;5072055;28;20064;-59
2023/11/19 01:24:17;;;;;;;59.80;10.38;;;;;;;;;;5058436;28;20056;-60
2023/11/19 01:26:45;;;;;;;67.90;10.85;;;;;;;;;;5062276;28;20044;-60
2023/11/19 01:29:13;;;;;;;63.88;8.90;;;;;;;;;;5071712;28;20115;-60
2023/11/19 01:31:40;;;;;;;65.35;10.35;;;;;;;;;;5033335;28;20124;-60
2023/11/19 01:34:07;;;;;;;65.57;9.60;;;;;;;;;;5041561;28;20069;-59
2023/11/19 01:36:33;;;;;;;61.35;10.65;;;;;;;;;;5017637;28;20045;-60
2023/11/19 01:38:59;;;;;;;71.25;10.13;;;;;;;;;;5042670;28;20097;-59
2023/11/19 01:41:25;;;;;;;72.47;10.48;;;;;;;;;;5030928;28;20072;-60
2023/11/19 01:43:51;;;;;;;62.70;9.70;;;;;;;;;;5032886;28;21454;-60
2023/11/19 01:46:17;;;;;;;74.38;11.00;;;;;;;;;;5038547;28;20133;-59
2023/11/19 01:48:45;;;;;;;61.72;10.30;;;;;;;;;;5046791;28;20489;-60
2023/11/19 01:51:13;;;;;;;61.42;9.45;;;;;;;;;;5028297;28;20087;-60
2023/11/19 01:53:42;;;;;;;74.22;12.60;;;;;;;;;;5029680;28;20045;-60
2023/11/19 01:56:10;;;;;;;61.28;10.20;;;;;;;;;;5031744;28;20049;-60
2023/11/19 01:58:38;;;;;;;68.78;10.55;;;;;;;;;;5032545;28;20068;-60
2023/11/19 02:01:06;;;;;;;64.97;12.43;;;;;;;;;;5024291;28;20394;-60
2023/11/19 02:03:33;;;;;;;74.93;10.82;;;;;;;;;;5041557;28;20071;-60
2023/11/19 02:05:59;;;;;;;66.22;10.30;;;;;;;;;;5038018;28;20125;-60
2023/11/19 02:08:26;;;;;;;69.97;11.68;;;;;;;;;;5038761;28;20115;-60
2023/11/19 02:10:52;;;;;;;73.93;10.63;;;;;;;;;;5044289;28;20047;-60
2023/11/19 02:13:19;;;;;;;67.40;11.70;;;;;;;;;;5033572;28;20493;-60
2023/11/19 02:15:45;;;;;;;58.65;10.60;;;;;;;;;;5033800;28;20103;-59
2023/11/19 02:18:19;;;;;;;66.05;12.52;;;;;;;;;;5045366;28;20515;-60
2023/11/19 02:20:45;;;;;;;76.75;10.60;;;;;;;;;;5047671;28;20052;-59
2023/11/19 02:23:12;;;;;;;84.22;13.93;;;;;;;;;;5024065;28;20037;-60
2023/11/19 02:25:39;;;;;;;73.47;11.07;;;;;;;;;;5031010;28;20429;-60
2023/11/19 02:28:05;;;;;;;79.13;11.38;;;;;;;;;;5034815;28;20578;-60
2023/11/19 02:30:31;;;;;;;64.50;11.70;;;;;;;;;;5056007;28;20071;-60
2023/11/19 02:32:58;;;;;;;69.15;12.75;;;;;;;;;;5049367;28;20520;-60
2023/11/19 02:35:26;;;;;;;68.20;11.55;;;;;;;;;;5052653;28;20079;-60
2023/11/19 02:37:52;;;;;;;65.03;10.45;;;;;;;;;;5052968;28;20044;-60
2023/11/19 02:40:18;;;;;;;67.03;11.27;;;;;;;;;;5052252;28;20040;-60
2023/11/19 02:42:44;;;;;;;61.40;9.73;;;;;;;;;;5054943;28;20465;-60
2023/11/19 02:45:14;;;;;;;80.38;12.57;;;;;;;;;;5058950;28;20051;-60
2023/11/19 02:47:44;;;;;;;65.65;9.30;;;;;;;;;;5055716;28;20136;-60
2023/11/19 02:50:16;;;;;;;74.55;11.30;;;;;;;;;;5048554;28;20123;-60
2023/11/19 02:52:42;;;;;;;68.65;10.23;;;;;;;;;;5048203;28;20118;-60
2023/11/19 02:55:10;;;;;;;74.38;12.90;;;;;;;;;;5067143;28;20384;-60
2023/11/19 02:57:36;;;;;;;66.28;10.35;;;;;;;;;;5058619;28;20053;-60
2023/11/19 03:00:11;;;;;;;70.90;9.25;;;;;;;;;;5051303;28;20037;-59
2023/11/19 03:02:44;;;;;;;68.50;10.23;;;;;;;;;;5051184;28;20045;-60
2023/11/19 03:05:11;;;;;;;70.75;10.07;;;;;;;;;;5043809;28;20037;-60
2023/11/19 03:07:38;;;;;;;73.75;10.07;;;;;;;;;;5045783;28;20083;-60
2023/11/19 03:10:05;;;;;;;62.75;9.63;;;;;;;;;;5062663;28;20045;-59
2023/11/19 03:12:31;;;;;;;61.88;10.63;;;;;;;;;;5062915;28;20037;-60
2023/11/19 03:14:58;;;;;;;79.90;12.98;;;;;;;;;;5058351;28;20072;-60
2023/11/19 03:17:25;;;;;;;74.43;10.10;;;;;;;;;;5055913;28;20044;-60
2023/11/19 03:19:51;;;;;;;73.93;11.25;;;;;;;;;;5063281;28;20550;-60
2023/11/19 03:22:17;;;;;;;71.35;10.85;;;;;;;;;;5064321;28;20386;-60
2023/11/19 03:24:43;;;;;;;78.55;10.35;;;;;;;;;;5050516;28;20090;-60
2023/11/19 03:27:10;;;;;;;68.28;12.45;;;;;;;;;;5063433;28;20037;-60
2023/11/19 03:29:36;;;;;;;52.72;8.77;;;;;;;;;;5064573;28;20055;-60
2023/11/19 03:32:02;;;;;;;60.30;10.60;;;;;;;;;;5052970;28;20049;-60
2023/11/19 03:34:28;;;;;;;62.47;11.10;;;;;;;;;;5064178;28;20391;-60
2023/11/19 03:36:55;;;;;;;71.30;10.57;;;;;;;;;;5050938;28;20064;-60
2023/11/19 03:39:24;;;;;;;73.57;9.95;;;;;;;;;;5063313;28;20052;-60
2023/11/19 03:41:51;;;;;;;88.82;12.27;;;;;;;;;;5065463;28;20132;-60
2023/11/19 03:44:17;;;;;;;60.78;9.98;;;;;;;;;;5057237;28;20043;-60
2023/11/19 03:46:44;;;;;;;61.80;11.68;;;;;;;;;;5058652;28;20654;-60
2023/11/19 03:49:10;;;;;;;74.85;12.75;;;;;;;;;;5070307;28;20094;-59
2023/11/19 03:51:36;;;;;;;69.75;10.27;;;;;;;;;;5064973;28;20105;-60
2023/11/19 03:54:02;;;;;;;62.05;10.10;;;;;;;;;;5062639;28;20519;-60
2023/11/19 03:56:29;;;;;;;70.47;9.82;;;;;;;;;;5064000;28;20124;-60
2023/11/19 03:58:55;;;;;;;77.88;13.20;;;;;;;;;;5068648;28;20060;-60
2023/11/19 04:01:21;;;;;;;53.03;9.45;;;;;;;;;;5054205;28;20493;-60
2023/11/19 04:03:47;;;;;;;63.15;10.65;;;;;;;;;;5058369;28;20490;-60
2023/11/19 04:06:14;;;;;;;64.05;8.73;;;;;;;;;;5066101;28;20527;-60
2023/11/19 04:08:40;;;;;;;60.92;8.07;;;;;;;;;;5063787;28;20138;-60
2023/11/19 04:11:06;;;;;;;62.10;9.57;;;;;;;;;;5052332;28;20041;-60
2023/11/19 04:13:32;;;;;;;61.13;9.63;;;;;;;;;;5057110;28;20037;-59
2023/11/19 04:15:58;;;;;;;67.85;8.90;;;;;;;;;;5065186;28;20055;-60
2023/11/19 04:18:25;;;;;;;71.50;9.35;;;;;;;;;;5069065;28;20048;-60
2023/11/19 04:20:51;;;;;;;74.70;9.82;;;;;;;;;;5066240;28;20440;-60
2023/11/19 04:23:17;;;;;;;70.90;10.57;;;;;;;;;;5057341;28;20102;-60
2023/11/19 04:25:44;;;;;;;53.28;9.77;;;;;;;;;;5048535;28;20854;-60
2023/11/19 04:28:10;;;;;;;58.42;9.75;;;;;;;;;;5053429;28;20052;-59
2023/11/19 04:30:37;;;;;;;53.55;9.02;;;;;;;;;;5066331;28;20079;-60
2023/11/19 04:33:04;;;;;;;49.88;8.25;;;;;;;;;;5055415;28;20045;-60
2023/11/19 04:35:30;;;;;;;64.93;10.65;;;;;;;;;;5052496;28;20056;-60
2023/11/19 04:37:57;;;;;;;62.10;8.90;;;;;;;;;;5054956;28;20079;-60
2023/11/19 04:40:23;;;;;;;71.25;10.25;;;;;;;;;;5046130;28;20112;-60
2023/11/19 04:42:50;;;;;;;57.30;8.63;;;;;;;;;;5055566;28;20067;-60
2023/11/19 04:45:16;;;;;;;60.22;9.70;;;;;;;;;;5058138;28;20045;-60
2023/11/19 04:47:43;;;;;;;73.45;8.50;;;;;;;;;;5061866;28;20041;-60
2023/11/19 04:50:10;;;;;;;57.33;8.50;;;;;;;;;;5063181;28;20033;-60
2023/11/19 04:52:45;;;;;;;51.45;9.68;;;;;;;;;;5048256;28;20123;-60
2023/11/19 04:55:14;;;;;;;55.85;8.90;;;;;;;;;;5033415;28;20049;-60
2023/11/19 04:57:41;;;;;;;56.75;8.52;;;;;;;;;;5062151;28;20079;-60
2023/11/19 05:00:07;;;;;;;61.92;10.13;;;;;;;;;;5055788;28;20491;-60
2023/11/19 05:02:35;;;;;;;51.78;8.50;;;;;;;;;;5063682;28;20033;-60
2023/11/19 05:05:03;;;;;;;64.78;9.60;;;;;;;;;;5054476;28;20060;-60
2023/11/19 05:07:29;;;;;;;56.97;9.48;;;;;;;;;;5067065;28;20037;-60
2023/11/19 05:09:56;;;;;;;60.75;10.02;;;;;;;;;;5054993;28;20052;-60
2023/11/19 05:12:22;;;;;;;56.25;9.10;;;;;;;;;;5065993;28;20040;-60
2023/11/19 05:14:50;;;;;;;61.72;9.23;;;;;;;;;;5056267;28;20045;-60
2023/11/19 05:17:18;;;;;;;72.88;11.82;;;;;;;;;;5066868;28;20056;-59
2023/11/19 05:19:45;;;;;;;69.00;10.88;;;;;;;;;;5068968;28;20049;-60
2023/11/19 05:22:11;;;;;;;66.30;9.52;;;;;;;;;;5064958;28;20394;-60
2023/11/19 05:24:37;;;;;;;74.22;11.32;;;;;;;;;;5066587;28;20037;-60
2023/11/19 05:27:03;;;;;;;56.20;9.57;;;;;;;;;;5052512;28;20370;-60
2023/11/19 05:29:29;;;;;;;69.68;9.43;;;;;;;;;;5065629;28;20044;-60
2023/11/19 05:31:56;;;;;;;57.60;9.48;;;;;;;;;;5061676;28;20124;-60
2023/11/19 05:34:22;;;;;;;60.95;8.93;;;;;;;;;;5054099;28;20033;-60
2023/11/19 05:36:49;;;;;;;57.90;9.48;;;;;;;;;;5050783;28;20040;-60
2023/11/19 05:39:15;;;;;;;49.38;8.05;;;;;;;;;;5046406;28;20256;-60
2023/11/19 05:41:42;;;;;;;57.20;9.93;;;;;;;;;;5054184;28;20037;-59
2023/11/19 05:44:08;;;;;;;74.97;10.80;;;;;;;;;;5054776;28;20049;-60
2023/11/19 05:46:40;;;;;;;58.20;8.65;;;;;;;;;;5068997;28;20402;-60
2023/11/19 05:49:06;;;;;;;61.97;8.82;;;;;;;;;;5061558;28;20408;-60
2023/11/19 05:51:32;;;;;;;58.95;8.57;;;;;;;;;;5053252;28;20051;-59
2023/11/19 05:53:59;;;;;;;56.85;9.35;;;;;;;;;;5061906;28;20048;-60
2023/11/19 05:56:32;;;;;;;54.60;8.68;;;;;;;;;;5067479;28;20055;-60
2023/11/19 05:59:00;;;;;;;70.23;9.53;;;;;;;;;;5061353;28;20067;-60
2023/11/19 06:01:26;;;;;;;65.97;9.35;;;;;;;;;;5059672;28;20053;-60
2023/11/19 06:03:52;;;;;;;66.57;9.07;;;;;;;;;;5055215;28;20040;-59
2023/11/19 06:06:19;;;;;;;52.25;10.52;;;;;;;;;;5052987;28;20052;-60
2023/11/19 06:08:45;;;;;;;60.00;10.48;;;;;;;;;;5059021;28;20466;-60
2023/11/19 06:11:14;;;;;;;57.08;9.25;;;;;;;;;;5060443;28;20043;-60
2023/11/19 06:13:41;;;;;;;54.50;7.72;;;;;;;;;;5069240;28;20119;-60
2023/11/19 06:16:07;;;;;;;62.47;9.75;;;;;;;;;;5054417;28;20047;-60
2023/11/19 06:18:34;;;;;;;52.92;8.95;;;;;;;;;;5063403;28;20182;-60
2023/11/19 06:21:00;;;;;;;56.72;9.23;;;;;;;;;;5051946;28;20070;-60
2023/11/19 06:23:26;;;;;;;65.40;10.43;;;;;;;;;;5070876;28;20098;-59
2023/11/19 06:25:52;;;;;;;49.90;8.32;;;;;;;;;;5057231;28;20077;-59
2023/11/19 06:28:19;;;;;;;68.20;9.05;;;;;;;;;;5070028;28;20078;-59
2023/11/19 06:30:45;;;;;;;45.17;9.30;;;;;;;;;;5052738;28;20053;-60
2023/11/19 06:33:15;;;;;;;54.38;9.25;;;;;;;;;;5057113;28;20561;-60
2023/11/19 06:35:41;;;;;;;68.03;9.32;;;;;;;;;;5040941;28;20483;-59
2023/11/19 06:38:07;;;;;;;55.90;10.60;;;;;;;;;;5064043;28;20044;-59
2023/11/19 06:40:34;;;;;;;48.28;8.00;;;;;;;;;;5060290;28;20052;-60
2023/11/19 06:43:03;;;;;;;63.95;10.45;;;;;;;;;;5057066;28;20041;-60
2023/11/19 06:45:29;;;;;;;51.80;8.25;;;;;;;;;;5051657;28;20190;-59
2023/11/19 06:47:55;;;;;;;55.50;8.00;;;;;;;;;;5057766;28;20045;-60
2023/11/19 06:50:21;;;;;;;68.50;10.27;;;;;;;;;;5060127;28;20041;-60
2023/11/19 06:52:48;;;;;;;66.18;10.27;;;;;;;;;;5052303;28;20063;-60
2023/11/19 06:55:14;;;;;;;60.33;11.55;;;;;;;;;;5068893;28;20450;-60
2023/11/19 06:57:40;;;;;;;51.20;8.27;;;;;;;;;;5051901;28;20080;-60
2023/11/19 07:00:06;;;;;;;59.00;9.88;;;;;;;;;;5056189;28;20547;-60
2023/11/19 07:02:33;;;;;;;58.17;8.60;;;;;;;;;;5065552;28;20045;-60
2023/11/19 07:04:59;;;;;;;56.80;11.52;;;;;;;;;;5053387;28;20045;-60
2023/11/19 07:07:26;;;;;;;60.97;9.25;;;;;;;;;;5027210;28;20059;-60
2023/11/19 07:09:52;;;;;;;61.20;9.30;;;;;;;;;;5050923;28;20037;-60
2023/11/19 07:12:19;;;;;;;47.72;8.40;;;;;;;;;;5053015;28;20052;-60
2023/11/19 07:14:46;;;;;;;64.80;7.97;;;;;;;;;;5060826;28;20060;-60
2023/11/19 07:17:12;;;;;;;60.40;9.50;;;;;;;;;;5046952;28;20623;-60
2023/11/19 07:19:39;;;;;;;56.78;8.65;;;;;;;;;;5057456;28;20112;-60
2023/11/19 07:22:06;;;;;;;57.10;8.68;;;;;;;;;;5067835;28;20117;-60
2023/11/19 07:24:32;;;;;;;60.78;8.32;;;;;;;;;;5057587;28;20041;-60
2023/11/19 07:26:58;;;;;;;64.35;10.27;;;;;;;;;;5047913;28;20052;-60
2023/11/19 07:29:24;;;;;;;57.55;10.48;;;;;;;;;;5045026;28;20036;-61
2023/11/19 07:31:50;;;;;;;55.60;8.27;;;;;;;;;;5057664;28;20500;-60
2023/11/19 07:34:17;;;;;;;58.10;8.68;;;;;;;;;;5053595;28;20045;-60
2023/11/19 07:36:43;;;;;;;53.90;9.35;;;;;;;;;;5051731;28;20045;-61
2023/11/19 07:39:09;;;;;;;52.55;9.88;;;;;;;;;;5057855;28;20041;-61
2023/11/19 07:41:35;;;;;;;62.42;8.60;;;;;;;;;;5045371;28;20041;-61
2023/11/19 07:44:02;;;;;;;49.70;9.05;;;;;;;;;;5065569;28;20047;-61
2023/11/19 07:46:28;;;;;;;51.63;8.25;;;;;;;;;;5056202;28;20556;-61
2023/11/19 07:48:54;;;;;;;61.67;8.88;;;;;;;;;;5073722;28;20135;-61
2023/11/19 07:51:20;;;;;;;53.97;8.07;;;;;;;;;;5073778;28;20083;-61
2023/11/19 07:53:47;;;;;;;59.03;10.00;;;;;;;;;;5073203;28;20111;-61
2023/11/19 07:56:13;;;;;;;52.40;9.30;;;;;;;;;;5073505;28;20546;-60
2023/11/19 07:58:40;;;;;;;59.35;9.75;;;;;;;;;;5044182;28;20036;-60
2023/11/19 08:01:06;;;;;;;52.85;8.80;;;;;;;;;;5057345;28;20050;-59
2023/11/19 08:03:34;;;;;;;56.85;8.40;;;;;;;;;;5056901;28;20550;-60
2023/11/19 08:06:01;;;;;;;55.35;11.05;;;;;;;;;;5072712;28;20041;-60
2023/11/19 08:08:29;;;;;;;55.80;8.60;;;;;;;;;;5066528;28;20457;-60
2023/11/19 08:10:56;;;;;;;52.65;8.63;;;;;;;;;;5073274;28;20072;-60
2023/11/19 08:13:24;;;;;;;44.78;7.60;;;;;;;;;;5059831;28;20127;-60
2023/11/19 08:15:50;;;;;;;42.00;8.55;;;;;;;;;;5068606;28;20452;-60
2023/11/19 08:18:18;;;;;;;48.30;9.45;;;;;;;;;;5063545;28;20044;-60
2023/11/19 08:20:44;;;;;;;61.63;9.77;;;;;;;;;;5072188;28;20041;-60
2023/11/19 08:23:11;;;;;;;55.10;9.35;;;;;;;;;;5061314;28;20055;-60
2023/11/19 08:25:37;;;;;;;54.80;7.75;;;;;;;;;;5073101;28;20121;-60
2023/11/19 08:28:03;;;;;;;49.53;10.32;;;;;;;;;;5066289;28;20401;-60
2023/11/19 08:30:30;;;;;;;59.60;10.30;;;;;;;;;;5060667;28;20445;-60
2023/11/19 08:32:56;;;;;;;50.70;8.68;;;;;;;;;;5071782;28;20122;-60
2023/11/19 08:35:23;;;;;;;48.17;9.63;;;;;;;;;;5043944;28;20458;-60
2023/11/19 08:37:49;;;;;;;53.17;9.63;;;;;;;;;;5059556;28;20051;-60
2023/11/19 08:40:16;;;;;;;62.17;9.95;;;;;;;;;;5061253;28;20447;-60
2023/11/19 08:42:42;;;;;;;59.10;9.52;;;;;;;;;;5064621;28;20120;-59
2023/11/19 08:45:12;;;;;;;64.72;9.77;;;;;;;;;;5050587;28;20056;-59
2023/11/19 08:47:40;;;;;;;59.13;9.80;;;;;;;;;;5037651;28;20123;-59
2023/11/19 08:50:08;;;;;;;47.60;8.40;;;;;;;;;;5048134;28;20461;-60
2023/11/19 08:52:34;;;;;;;59.83;8.50;;;;;;;;;;5050787;28;20049;-60
2023/11/19 08:55:00;;;;;;;62.45;9.55;;;;;;;;;;5049743;28;20049;-60
2023/11/19 08:57:27;;;;;;;50.50;9.00;;;;;;;;;;5051134;28;20123;-60
2023/11/19 08:59:53;;;;;;;65.25;9.75;;;;;;;;;;5051676;28;20051;-60
2023/11/19 09:02:19;;;;;;;49.45;8.07;;;;;;;;;;5055835;28;20360;-60
2023/11/19 09:04:45;;;;;;;51.47;8.32;;;;;;;;;;5048884;28;20123;-60
2023/11/19 09:07:12;;;;;;;59.78;9.32;;;;;;;;;;5056080;28;20421;-60
2023/11/19 09:09:38;;;;;;;48.00;8.20;;;;;;;;;;5031487;28;20449;-60
2023/11/19 09:12:04;;;;;;;62.05;10.75;;;;;;;;;;5046261;28;20435;-59
2023/11/19 09:14:31;;;;;;;48.15;7.95;;;;;;;;;;5053318;28;20074;-60
2023/11/19 09:16:58;;;;;;;59.83;8.93;;;;;;;;;;5054305;28;20450;-60
2023/11/19 09:19:26;;;;;;;59.10;9.10;;;;;;;;;;5036916;28;20036;-59
2023/11/19 09:21:52;;;;;;;64.75;10.48;;;;;;;;;;5064275;28;20180;-60
2023/11/19 09:24:19;;;;;;;59.28;9.70;;;;;;;;;;5057366;28;20044;-60
2023/11/19 09:26:45;;;;;;;48.05;7.78;;;;;;;;;;5064976;28;20044;-59
2023/11/19 09:29:11;;;;;;;46.60;6.68;;;;;;;;;;5067905;28;20036;-59
2023/11/19 09:31:41;;;;;;;45.33;9.40;;;;;;;;;;5070954;28;20063;-60
2023/11/19 09:34:07;;;;;;;61.72;8.98;;;;;;;;;;5071705;28;20397;-60
2023/11/19 09:36:34;;;;;;;59.65;10.45;;;;;;;;;;5063527;28;20045;-60
2023/11/19 09:39:01;;;;;;;62.03;8.75;;;;;;;;;;5051396;28;20044;-60
2023/11/19 09:41:27;;;;;;;46.22;8.38;;;;;;;;;;5053715;28;20045;-59
2023/11/19 09:43:54;;;;;;;43.88;7.88;;;;;;;;;;5049188;28;20029;-60
2023/11/19 09:46:20;;;;;;;52.85;10.27;;;;;;;;;;5066655;28;20080;-60
2023/11/19 09:48:48;;;;;;;46.42;9.52;;;;;;;;;;5052129;28;20068;-59
2023/11/19 09:51:15;;;;;;;60.13;10.35;;;;;;;;;;5057310;28;20481;-60
2023/11/19 09:53:41;;;;;;;55.28;8.57;;;;;;;;;;5051588;28;20045;-59
2023/11/19 09:56:07;;;;;;;57.05;8.10;;;;;;;;;;5051305;28;20044;-60
2023/11/19 09:58:34;;;;;;;49.35;9.52;;;;;;;;;;5049155;28;20044;-60
2023/11/19 10:01:02;;;;;;;40.78;7.57;;;;;;;;;;5059097;28;20087;-60
2023/11/19 10:03:32;;;;;;;42.75;8.10;;;;;;;;;;5056769;28;20087;-60
2023/11/19 10:05:59;;;;;;;56.33;7.85;;;;;;;;;;5068316;28;20045;-60
2023/11/19 10:08:25;;;;;;;60.65;8.45;;;;;;;;;;5058729;28;20433;-60
2023/11/19 10:10:51;;;;;;;48.03;9.15;;;;;;;;;;5070165;28;20040;-59
2023/11/19 10:13:18;;;;;;;47.30;7.93;;;;;;;;;;5055573;28;20493;-59
2023/11/19 10:15:44;;;;;;;48.50;7.93;;;;;;;;;;5062264;28;20041;-59
2023/11/19 10:18:10;;;;;;;39.55;7.47;;;;;;;;;;5055027;28;20438;-59
2023/11/19 10:20:37;;;;;;;51.20;9.30;;;;;;;;;;5047296;28;20481;-60
2023/11/19 10:23:03;;;;;;;49.25;8.80;;;;;;;;;;5070812;28;20052;-59
2023/11/19 10:25:30;;;;;;;46.60;7.43;;;;;;;;;;5059159;28;20056;-60
2023/11/19 10:27:57;;;;;;;53.55;8.05;;;;;;;;;;5063033;28;20151;-60
2023/11/19 10:30:27;;;;;;;47.25;9.02;;;;;;;;;;5056322;28;20106;-59
2023/11/19 10:33:19;;;;;;;39.63;9.48;;;;;;;;;;5057764;28;20052;-59
2023/11/19 10:36:05;;;;;;;47.15;8.50;;;;;;;;;;5050813;28;20048;-60
2023/11/19 10:38:31;;;;;;;39.55;7.45;;;;;;;;;;5040596;28;20036;-60
2023/11/19 10:40:57;;;;;;;48.90;8.30;;;;;;;;;;5033643;28;20155;-60
2023/11/19 10:43:24;;;;;;;47.72;7.60;;;;;;;;;;5070248;28;20115;-59
2023/11/19 10:45:51;;;;;;;55.80;9.57;;;;;;;;;;5031987;28;20056;-60
2023/11/19 10:48:17;;;;;;;38.28;7.57;;;;;;;;;;5052923;28;20048;-60
2023/11/19 10:50:44;;;;;;;45.78;8.30;;;;;;;;;;5055853;28;20455;-60
2023/11/19 10:53:15;;;;;;;47.08;7.88;;;;;;;;;;5054057;28;20043;-59
2023/11/19 10:55:42;;;;;;;48.67;7.47;;;;;;;;;;5051199;28;20052;-60
2023/11/19 10:58:10;;;;;;;43.80;7.85;;;;;;;;;;5049904;28;20087;-60
2023/11/19 11:00:37;;;;;;;40.60;8.38;;;;;;;;;;5049346;28;20067;-60
2023/11/19 11:03:06;;;;;;;46.85;7.85;;;;;;;;;;5045703;28;20084;-60
2023/11/19 11:05:34;;;;;;;45.65;8.90;;;;;;;;;;5065815;28;20068;-59
2023/11/19 11:08:02;;;;;;;48.75;7.57;;;;;;;;;;5054060;28;20048;-60
2023/11/19 11:10:29;;;;;;;43.67;8.02;;;;;;;;;;5050816;28;20099;-60
2023/11/19 11:12:58;;;;;;;44.95;7.18;;;;;;;;;;5050050;28;20045;-59
2023/11/19 11:15:28;;;;;;;39.13;7.15;;;;;;;;;;5064547;28;20098;-60
2023/11/19 11:17:58;;;;;;;38.65;6.28;;;;;;;;;;5062171;28;20381;-60
2023/11/19 11:20:24;;;;;;;42.72;7.60;;;;;;;;;;5051513;28;20069;-59
2023/11/19 11:23:01;;;;;;;40.92;7.18;;;;;;;;;;5068939;28;20058;-59
2023/11/19 11:25:30;;;;;;;40.72;7.40;;;;;;;;;;5055633;28;20052;-60
2023/11/19 11:27:56;;;;;;;37.42;6.85;;;;;;;;;;5053912;28;20044;-60
2023/11/19 11:30:25;;;;;;;45.60;9.52;;;;;;;;;;5059742;28;20104;-60
2023/11/19 11:32:59;;;;;;;46.55;7.80;;;;;;;;;;5050193;28;20092;-60
2023/11/19 11:35:38;;;;;;;48.55;7.32;;;;;;;;;;5046430;28;20378;-60
2023/11/19 11:38:07;;;;;;;48.22;8.50;;;;;;;;;;5043560;28;20052;-60
2023/11/19 11:40:33;;;;;;;46.60;8.43;;;;;;;;;;5049731;28;20033;-60
2023/11/19 11:42:59;;;;;;;40.42;7.90;;;;;;;;;;5049225;28;20041;-60
2023/11/19 11:45:43;;;;;;;53.45;7.22;;;;;;;;;;5049387;28;20089;-60
2023/11/19 11:48:13;;;;;;;45.72;7.57;;;;;;;;;;5067891;28;20044;-60
2023/11/19 11:50:49;;;;;;;43.28;8.57;;;;;;;;;;5061651;28;20334;-60
2023/11/19 11:53:19;;;;;;;51.25;8.63;;;;;;;;;;5059811;28;20436;-60
2023/11/19 11:55:48;;;;;;;51.40;8.10;;;;;;;;;;5056322;28;20056;-60
2023/11/19 11:58:18;;;;;;;51.13;7.68;;;;;;;;;;5052035;28;20491;-60
2023/11/19 12:00:44;;;;;;;42.83;9.60;;;;;;;;;;5050765;28;20041;-59
2023/11/19 12:03:11;;;;;;;42.30;7.55;;;;;;;;;;5056533;28;20055;-60
2023/11/19 12:05:48;;;;;;;37.67;6.93;;;;;;;;;;5070709;28;20116;-60
2023/11/19 12:08:20;;;;;;;52.03;8.10;;;;;;;;;;5058211;28;20139;-60
2023/11/19 12:10:53;;;;;;;38.75;7.07;;;;;;;;;;5053810;28;20442;-60
2023/11/19 12:13:21;;;;;;;38.88;7.70;;;;;;;;;;5053115;28;20041;-60
2023/11/19 12:15:57;;;;;;;39.42;7.65;;;;;;;;;;5053229;28;20098;-60
2023/11/19 12:18:30;;;;;;;37.88;7.78;;;;;;;;;;5053369;28;20513;-61
2023/11/19 12:20:57;;;;;;;39.97;7.80;;;;;;;;;;5052336;28;20094;-60
2023/11/19 12:23:24;;;;;;;42.95;6.82;;;;;;;;;;5051114;28;20147;-60
2023/11/19 12:25:50;;;;;;;47.83;7.50;;;;;;;;;;5052085;28;20045;-60
2023/11/19 12:28:17;;;;;;;35.45;7.05;;;;;;;;;;5051998;28;20044;-60
2023/11/19 12:30:43;;;;;;;40.22;6.82;;;;;;;;;;5052730;28;20049;-61
2023/11/19 12:33:10;;;;;;;39.47;6.90;;;;;;;;;;5042317;28;20132;-61
2023/11/19 12:35:43;;;;;;;41.38;6.63;;;;;;;;;;5053062;28;20080;-61
2023/11/19 12:38:19;;;;;;;39.35;8.88;;;;;;;;;;5050332;28;20460;-61
2023/11/19 12:40:45;;;;;;;40.65;7.28;;;;;;;;;;5045392;28;20041;-61
2023/11/19 12:43:22;;;;;;;37.67;8.10;;;;;;;;;;5051647;28;20037;-61
2023/11/19 12:45:48;;;;;;;37.35;7.63;;;;;;;;;;5052740;28;20045;-61
2023/11/19 12:48:14;;;;;;;40.78;6.05;;;;;;;;;;5050718;28;20140;-61
2023/11/19 12:51:01;;;;;;;36.33;6.50;;;;;;;;;;5052589;28;20123;-61
2023/11/19 12:53:28;;;;;;;26.48;6.03;;;;;;;;;;5052442;28;20101;-61
2023/11/19 12:55:58;;;;;;;39.78;6.75;;;;;;;;;;5051140;28;20037;-62
2023/11/19 12:58:34;;;;;;;46.03;8.35;;;;;;;;;;5050465;28;20089;-65
2023/11/19 13:01:01;;;;;;;35.05;7.00;;;;;;;;;;5055112;28;20059;-66
2023/11/19 13:03:31;;;;;;;42.20;6.80;;;;;;;;;;5066515;28;20055;-61
2023/11/19 13:06:11;;;;;;;37.88;7.85;;;;;;;;;;5045736;28;20071;-61
2023/11/19 13:08:52;;;;;;;40.33;7.10;;;;;;;;;;5063718;28;20074;-61
2023/11/19 13:11:31;;;;;;;40.83;6.63;;;;;;;;;;5060640;28;20381;-61
2023/11/19 13:14:03;;;;;;;40.15;6.40;;;;;;;;;;5066926;28;20067;-61
2023/11/19 13:16:29;;;;;;;43.30;6.47;;;;;;;;;;5070599;28;20388;-61
2023/11/19 13:18:56;;;;;;;39.00;6.57;;;;;;;;;;5065037;28;20064;-61
2023/11/19 13:21:23;;;;;;;41.45;8.50;;;;;;;;;;5044619;28;20362;-61
2023/11/19 13:23:49;;;;;;;37.10;6.82;;;;;;;;;;5052096;28;20152;-61
2023/11/19 13:26:16;;;;;;;45.72;8.60;;;;;;;;;;5063921;28;20515;-61
2023/11/19 13:28:42;;;;;;;45.92;6.72;;;;;;;;;;5072060;28;20055;-61
2023/11/19 13:31:08;;;;;;;40.38;7.03;;;;;;;;;;5070791;28;20157;-61
2023/11/19 13:33:34;;;;;;;37.50;7.15;;;;;;;;;;5062819;28;20044;-61
2023/11/19 13:36:05;;;;;;;44.53;6.93;;;;;;;;;;5053153;28;20485;-61
2023/11/19 13:38:32;;;;;;;41.45;7.32;;;;;;;;;;5067074;28;20045;-61
2023/11/19 13:40:59;;;;;;;51.15;8.00;;;;;;;;;;5061477;28;20112;-61
2023/11/19 13:43:25;;;;;;;41.08;6.32;;;;;;;;;;5063636;28;20504;-61
2023/11/19 13:45:53;;;;;;;42.15;7.95;;;;;;;;;;5071576;28;20103;-61
2023/11/19 13:48:19;;;;;;;32.50;5.50;;;;;;;;;;5060739;28;20040;-61
2023/11/19 13:50:45;;;;;;;38.70;7.10;;;;;;;;;;5070630;28;20056;-61
2023/11/19 13:53:12;;;;;;;45.97;9.07;;;;;;;;;;5051576;28;20127;-60
2023/11/19 13:55:38;;;;;;;43.72;7.82;;;;;;;;;;5053942;28;20037;-60
2023/11/19 13:58:04;;;;;;;48.30;7.30;;;;;;;;;;5066266;28;20138;-60
2023/11/19 14:00:31;;;;;;;40.83;7.25;;;;;;;;;;5056294;28;20041;-60
2023/11/19 14:02:57;;;;;;;35.97;6.82;;;;;;;;;;5060351;28;20036;-60
2023/11/19 14:05:23;;;;;;;41.55;7.22;;;;;;;;;;5066124;28;20044;-60
2023/11/19 14:07:51;;;;;;;44.90;7.35;;;;;;;;;;5062644;28;20177;-60
2023/11/19 14:10:17;;;;;;;36.22;5.93;;;;;;;;;;5047835;28;20049;-60
2023/11/19 14:12:44;;;;;;;48.80;7.25;;;;;;;;;;5070417;28;20090;-60
2023/11/19 14:15:12;;;;;;;36.67;7.80;;;;;;;;;;5065219;28;20049;-60
2023/11/19 14:17:39;;;;;;;43.75;6.90;;;;;;;;;;5069658;28;20076;-60
2023/11/19 14:20:15;;;;;;;56.17;9.85;;;;;;;;;;5062916;28;20040;-60
2023/11/19 14:22:45;;;;;;;38.40;7.50;;;;;;;;;;5057889;28;20040;-60
2023/11/19 14:25:11;;;;;;;44.42;7.38;;;;;;;;;;5070817;28;20102;-60
2023/11/19 14:27:38;;;;;;;40.05;6.28;;;;;;;;;;5065542;28;20045;-60